sensor_id;sensor_type;location;lat;lon;timestamp;P1;durP1;ratioP1;P2;durP2;ratioP2
61015;SDS011;46902;52.920;6.536;2022-12-18T00:00:42;86.35;;;34.70;;
61015;SDS011;46902;52.920;6.536;2022-12-18T00:03:11;82.40;;;34.53;;
61015;SDS011;46902;52.920;6.536;2022-12-18T00:05:36;87.60;;;35.92;;
61015;SDS011;46902;52.920;6.536;2022-12-18T00:08:02;91.63;;;36.45;;
61015;SDS011;46902;52.920;6.536;2022-12-18T00:10:28;90.32;;;35.55;;
61015;SDS011;46902;52.920;6.536;2022-12-18T00:12:54;86.97;;;36.53;;
61015;SDS011;46902;52.920;6.536;2022-12-18T00:15:19;98.47;;;37.55;;
61015;SDS011;46902;52.920;6.536;2022-12-18T00:17:45;98.15;;;39.63;;
61015;SDS011;46902;52.920;6.536;2022-12-18T00:20:11;98.70;;;39.55;;
61015;SDS011;46902;52.920;6.536;2022-12-18T00:22:36;103.85;;;38.58;;
61015;SDS011;46902;52.920;6.536;2022-12-18T00:25:02;103.13;;;38.15;;
61015;SDS011;46902;52.920;6.536;2022-12-18T00:27:28;94.50;;;38.10;;
61015;SDS011;46902;52.920;6.536;2022-12-18T00:29:53;105.50;;;39.28;;
61015;SDS011;46902;52.920;6.536;2022-12-18T00:32:19;98.57;;;38.72;;
61015;SDS011;46902;52.920;6.536;2022-12-18T00:34:44;87.97;;;36.28;;
61015;SDS011;46902;52.920;6.536;2022-12-18T00:37:10;78.68;;;33.70;;
61015;SDS011;46902;52.920;6.536;2022-12-18T00:39:36;89.93;;;36.40;;
61015;SDS011;46902;52.920;6.536;2022-12-18T00:42:01;86.13;;;36.28;;
61015;SDS011;46902;52.920;6.536;2022-12-18T00:44:45;93.72;;;36.22;;
61015;SDS011;46902;52.920;6.536;2022-12-18T00:47:11;84.50;;;34.50;;
61015;SDS011;46902;52.920;6.536;2022-12-18T00:49:36;86.30;;;35.38;;
61015;SDS011;46902;52.920;6.536;2022-12-18T00:52:02;87.88;;;36.83;;
61015;SDS011;46902;52.920;6.536;2022-12-18T00:54:27;85.68;;;35.42;;
61015;SDS011;46902;52.920;6.536;2022-12-18T00:56:53;94.70;;;37.45;;
61015;SDS011;46902;52.920;6.536;2022-12-18T00:59:20;94.93;;;37.97;;
61015;SDS011;46902;52.920;6.536;2022-12-18T01:01:46;94.35;;;38.33;;
61015;SDS011;46902;52.920;6.536;2022-12-18T01:04:12;82.90;;;35.95;;
61015;SDS011;46902;52.920;6.536;2022-12-18T01:06:37;95.30;;;36.63;;
61015;SDS011;46902;52.920;6.536;2022-12-18T01:09:03;90.15;;;37.45;;
61015;SDS011;46902;52.920;6.536;2022-12-18T01:11:28;85.63;;;36.50;;
61015;SDS011;46902;52.920;6.536;2022-12-18T01:13:54;85.30;;;36.33;;
61015;SDS011;46902;52.920;6.536;2022-12-18T01:16:20;85.35;;;34.75;;
61015;SDS011;46902;52.920;6.536;2022-12-18T01:18:46;94.15;;;36.33;;
61015;SDS011;46902;52.920;6.536;2022-12-18T01:21:13;87.82;;;37.65;;
61015;SDS011;46902;52.920;6.536;2022-12-18T01:23:40;84.43;;;35.38;;
61015;SDS011;46902;52.920;6.536;2022-12-18T01:26:11;78.55;;;35.03;;
61015;SDS011;46902;52.920;6.536;2022-12-18T01:28:39;85.85;;;36.80;;
61015;SDS011;46902;52.920;6.536;2022-12-18T01:34:01;90.90;;;37.40;;
61015;SDS011;46902;52.920;6.536;2022-12-18T01:36:27;99.15;;;39.10;;
61015;SDS011;46902;52.920;6.536;2022-12-18T01:39:05;96.75;;;38.45;;
61015;SDS011;46902;52.920;6.536;2022-12-18T01:41:34;90.63;;;39.10;;
61015;SDS011;46902;52.920;6.536;2022-12-18T01:47:18;92.93;;;38.22;;
61015;SDS011;46902;52.920;6.536;2022-12-18T01:50:08;86.45;;;36.60;;
61015;SDS011;46902;52.920;6.536;2022-12-18T01:52:33;89.38;;;36.60;;
61015;SDS011;46902;52.920;6.536;2022-12-18T01:55:01;83.03;;;36.72;;
61015;SDS011;46902;52.920;6.536;2022-12-18T01:57:28;84.32;;;37.20;;
61015;SDS011;46902;52.920;6.536;2022-12-18T01:59:55;85.88;;;37.03;;
61015;SDS011;46902;52.920;6.536;2022-12-18T02:02:26;87.20;;;37.35;;
61015;SDS011;46902;52.920;6.536;2022-12-18T02:04:53;87.45;;;37.47;;
61015;SDS011;46902;52.920;6.536;2022-12-18T02:07:29;84.35;;;37.22;;
61015;SDS011;46902;52.920;6.536;2022-12-18T02:15:10;78.95;;;35.90;;
61015;SDS011;46902;52.920;6.536;2022-12-18T02:17:48;75.90;;;34.22;;
61015;SDS011;46902;52.920;6.536;2022-12-18T02:20:28;83.93;;;36.25;;
61015;SDS011;46902;52.920;6.536;2022-12-18T02:28:41;84.68;;;37.38;;
61015;SDS011;46902;52.920;6.536;2022-12-18T02:31:14;78.13;;;35.50;;
61015;SDS011;46902;52.920;6.536;2022-12-18T02:33:47;80.82;;;35.53;;
61015;SDS011;46902;52.920;6.536;2022-12-18T02:36:16;75.63;;;34.53;;
61015;SDS011;46902;52.920;6.536;2022-12-18T02:38:43;78.78;;;36.88;;
61015;SDS011;46902;52.920;6.536;2022-12-18T02:41:10;84.20;;;36.05;;
61015;SDS011;46902;52.920;6.536;2022-12-18T02:43:37;83.35;;;36.28;;
61015;SDS011;46902;52.920;6.536;2022-12-18T02:48:55;93.70;;;37.45;;
61015;SDS011;46902;52.920;6.536;2022-12-18T02:51:36;90.80;;;36.60;;
61015;SDS011;46902;52.920;6.536;2022-12-18T02:57:05;88.50;;;36.95;;
61015;SDS011;46902;52.920;6.536;2022-12-18T02:59:49;89.25;;;36.50;;
61015;SDS011;46902;52.920;6.536;2022-12-18T03:02:25;94.35;;;37.60;;
61015;SDS011;46902;52.920;6.536;2022-12-18T03:07:34;94.32;;;37.10;;
61015;SDS011;46902;52.920;6.536;2022-12-18T03:10:03;95.90;;;36.85;;
61015;SDS011;46902;52.920;6.536;2022-12-18T03:12:34;88.80;;;36.53;;
61015;SDS011;46902;52.920;6.536;2022-12-18T03:15:03;87.18;;;37.90;;
61015;SDS011;46902;52.920;6.536;2022-12-18T03:17:34;91.30;;;36.83;;
61015;SDS011;46902;52.920;6.536;2022-12-18T03:20:03;96.68;;;37.38;;
61015;SDS011;46902;52.920;6.536;2022-12-18T03:22:35;89.95;;;36.65;;
61015;SDS011;46902;52.920;6.536;2022-12-18T03:25:02;82.82;;;33.85;;
61015;SDS011;46902;52.920;6.536;2022-12-18T03:27:32;79.65;;;34.67;;
61015;SDS011;46902;52.920;6.536;2022-12-18T03:30:05;86.72;;;34.90;;
61015;SDS011;46902;52.920;6.536;2022-12-18T03:32:36;88.82;;;34.42;;
61015;SDS011;46902;52.920;6.536;2022-12-18T03:35:06;92.68;;;36.42;;
61015;SDS011;46902;52.920;6.536;2022-12-18T03:37:34;88.10;;;35.45;;
61015;SDS011;46902;52.920;6.536;2022-12-18T03:40:00;88.18;;;35.75;;
61015;SDS011;46902;52.920;6.536;2022-12-18T03:42:30;82.90;;;35.00;;
61015;SDS011;46902;52.920;6.536;2022-12-18T03:55:50;86.45;;;34.47;;
61015;SDS011;46902;52.920;6.536;2022-12-18T03:58:17;87.32;;;34.38;;
61015;SDS011;46902;52.920;6.536;2022-12-18T04:00:47;84.40;;;34.95;;
61015;SDS011;46902;52.920;6.536;2022-12-18T04:03:14;87.18;;;34.58;;
61015;SDS011;46902;52.920;6.536;2022-12-18T04:05:43;85.30;;;34.63;;
61015;SDS011;46902;52.920;6.536;2022-12-18T04:08:10;80.40;;;32.83;;
61015;SDS011;46902;52.920;6.536;2022-12-18T04:10:36;83.55;;;33.28;;
61015;SDS011;46902;52.920;6.536;2022-12-18T04:13:01;83.85;;;33.38;;
61015;SDS011;46902;52.920;6.536;2022-12-18T04:15:27;80.05;;;33.15;;
61015;SDS011;46902;52.920;6.536;2022-12-18T04:17:53;76.95;;;32.20;;
61015;SDS011;46902;52.920;6.536;2022-12-18T04:20:18;73.85;;;30.70;;
61015;SDS011;46902;52.920;6.536;2022-12-18T04:22:44;76.57;;;32.40;;
61015;SDS011;46902;52.920;6.536;2022-12-18T04:25:09;79.10;;;31.20;;
61015;SDS011;46902;52.920;6.536;2022-12-18T04:27:35;76.07;;;31.55;;
61015;SDS011;46902;52.920;6.536;2022-12-18T04:30:00;69.68;;;30.33;;
61015;SDS011;46902;52.920;6.536;2022-12-18T04:32:26;69.30;;;29.67;;
61015;SDS011;46902;52.920;6.536;2022-12-18T04:34:51;71.03;;;29.17;;
61015;SDS011;46902;52.920;6.536;2022-12-18T04:37:17;69.63;;;29.05;;
61015;SDS011;46902;52.920;6.536;2022-12-18T04:39:43;73.60;;;31.88;;
61015;SDS011;46902;52.920;6.536;2022-12-18T04:42:08;73.28;;;29.33;;
61015;SDS011;46902;52.920;6.536;2022-12-18T04:44:34;68.15;;;28.45;;
61015;SDS011;46902;52.920;6.536;2022-12-18T04:47:00;68.85;;;29.13;;
61015;SDS011;46902;52.920;6.536;2022-12-18T04:49:26;70.32;;;29.77;;
61015;SDS011;46902;52.920;6.536;2022-12-18T04:51:52;59.35;;;27.17;;
61015;SDS011;46902;52.920;6.536;2022-12-18T04:54:18;72.43;;;28.83;;
61015;SDS011;46902;52.920;6.536;2022-12-18T04:56:46;64.10;;;27.33;;
61015;SDS011;46902;52.920;6.536;2022-12-18T04:59:12;65.38;;;27.50;;
61015;SDS011;46902;52.920;6.536;2022-12-18T05:01:38;62.90;;;26.52;;
61015;SDS011;46902;52.920;6.536;2022-12-18T05:04:03;60.80;;;26.77;;
61015;SDS011;46902;52.920;6.536;2022-12-18T05:06:29;61.88;;;26.85;;
61015;SDS011;46902;52.920;6.536;2022-12-18T05:08:54;56.63;;;25.17;;
61015;SDS011;46902;52.920;6.536;2022-12-18T05:11:20;54.10;;;24.88;;
61015;SDS011;46902;52.920;6.536;2022-12-18T05:13:46;58.53;;;25.27;;
61015;SDS011;46902;52.920;6.536;2022-12-18T05:16:12;53.70;;;25.10;;
61015;SDS011;46902;52.920;6.536;2022-12-18T05:18:38;48.35;;;23.42;;
61015;SDS011;46902;52.920;6.536;2022-12-18T05:21:04;56.03;;;24.08;;
61015;SDS011;46902;52.920;6.536;2022-12-18T05:23:30;48.47;;;23.65;;
61015;SDS011;46902;52.920;6.536;2022-12-18T05:25:59;48.63;;;24.30;;
61015;SDS011;46902;52.920;6.536;2022-12-18T05:28:28;51.40;;;23.60;;
61015;SDS011;46902;52.920;6.536;2022-12-18T05:30:56;50.70;;;23.75;;
61015;SDS011;46902;52.920;6.536;2022-12-18T05:33:24;46.22;;;22.23;;
61015;SDS011;46902;52.920;6.536;2022-12-18T05:35:55;52.00;;;23.98;;
61015;SDS011;46902;52.920;6.536;2022-12-18T05:38:23;46.17;;;21.50;;
61015;SDS011;46902;52.920;6.536;2022-12-18T05:40:50;46.67;;;22.45;;
61015;SDS011;46902;52.920;6.536;2022-12-18T05:43:17;44.85;;;22.13;;
61015;SDS011;46902;52.920;6.536;2022-12-18T05:45:44;46.88;;;21.75;;
61015;SDS011;46902;52.920;6.536;2022-12-18T05:48:10;45.67;;;21.70;;
61015;SDS011;46902;52.920;6.536;2022-12-18T05:50:39;45.08;;;22.02;;
61015;SDS011;46902;52.920;6.536;2022-12-18T05:53:06;43.08;;;22.10;;
61015;SDS011;46902;52.920;6.536;2022-12-18T05:55:35;44.72;;;22.02;;
61015;SDS011;46902;52.920;6.536;2022-12-18T05:58:03;41.83;;;21.52;;
61015;SDS011;46902;52.920;6.536;2022-12-18T06:00:30;41.78;;;21.13;;
61015;SDS011;46902;52.920;6.536;2022-12-18T06:02:58;43.33;;;21.55;;
61015;SDS011;46902;52.920;6.536;2022-12-18T06:05:24;42.80;;;20.30;;
61015;SDS011;46902;52.920;6.536;2022-12-18T06:07:49;44.35;;;20.50;;
61015;SDS011;46902;52.920;6.536;2022-12-18T06:10:15;39.92;;;20.30;;
61015;SDS011;46902;52.920;6.536;2022-12-18T06:12:41;41.30;;;20.85;;
61015;SDS011;46902;52.920;6.536;2022-12-18T06:15:06;39.95;;;20.42;;
61015;SDS011;46902;52.920;6.536;2022-12-18T06:17:33;41.42;;;20.13;;
61015;SDS011;46902;52.920;6.536;2022-12-18T06:19:59;40.10;;;20.35;;
61015;SDS011;46902;52.920;6.536;2022-12-18T06:22:24;41.08;;;21.10;;
61015;SDS011;46902;52.920;6.536;2022-12-18T06:24:51;39.92;;;21.00;;
61015;SDS011;46902;52.920;6.536;2022-12-18T06:27:16;39.75;;;19.50;;
61015;SDS011;46902;52.920;6.536;2022-12-18T06:29:42;38.08;;;19.83;;
61015;SDS011;46902;52.920;6.536;2022-12-18T06:32:08;38.10;;;19.63;;
61015;SDS011;46902;52.920;6.536;2022-12-18T06:34:33;40.97;;;19.83;;
61015;SDS011;46902;52.920;6.536;2022-12-18T06:37:01;36.35;;;18.27;;
61015;SDS011;46902;52.920;6.536;2022-12-18T06:39:27;39.45;;;19.20;;
61015;SDS011;46902;52.920;6.536;2022-12-18T06:41:53;39.33;;;19.55;;
61015;SDS011;46902;52.920;6.536;2022-12-18T06:44:18;36.60;;;19.13;;
61015;SDS011;46902;52.920;6.536;2022-12-18T06:46:44;37.65;;;19.70;;
61015;SDS011;46902;52.920;6.536;2022-12-18T06:49:10;39.00;;;20.15;;
61015;SDS011;46902;52.920;6.536;2022-12-18T06:51:35;36.33;;;19.27;;
61015;SDS011;46902;52.920;6.536;2022-12-18T06:54:01;37.25;;;18.48;;
61015;SDS011;46902;52.920;6.536;2022-12-18T06:56:27;34.50;;;18.92;;
61015;SDS011;46902;52.920;6.536;2022-12-18T06:58:53;32.70;;;17.50;;
61015;SDS011;46902;52.920;6.536;2022-12-18T07:01:18;32.95;;;17.80;;
61015;SDS011;46902;52.920;6.536;2022-12-18T07:03:44;36.15;;;18.75;;
61015;SDS011;46902;52.920;6.536;2022-12-18T07:06:14;32.38;;;17.33;;
61015;SDS011;46902;52.920;6.536;2022-12-18T07:08:44;34.63;;;17.63;;
61015;SDS011;46902;52.920;6.536;2022-12-18T07:11:10;35.25;;;19.27;;
61015;SDS011;46902;52.920;6.536;2022-12-18T07:13:36;41.85;;;19.77;;
61015;SDS011;46902;52.920;6.536;2022-12-18T07:16:06;37.55;;;19.02;;
61015;SDS011;46902;52.920;6.536;2022-12-18T07:18:36;39.65;;;19.90;;
61015;SDS011;46902;52.920;6.536;2022-12-18T07:21:02;38.22;;;19.73;;
61015;SDS011;46902;52.920;6.536;2022-12-18T07:23:33;37.85;;;20.00;;
61015;SDS011;46902;52.920;6.536;2022-12-18T07:26:00;38.78;;;20.02;;
61015;SDS011;46902;52.920;6.536;2022-12-18T07:28:30;39.15;;;19.85;;
61015;SDS011;46902;52.920;6.536;2022-12-18T07:30:56;39.90;;;20.45;;
61015;SDS011;46902;52.920;6.536;2022-12-18T07:33:23;36.35;;;19.05;;
61015;SDS011;46902;52.920;6.536;2022-12-18T07:35:49;35.13;;;19.23;;
61015;SDS011;46902;52.920;6.536;2022-12-18T07:38:15;38.85;;;19.90;;
61015;SDS011;46902;52.920;6.536;2022-12-18T07:40:40;39.30;;;19.77;;
61015;SDS011;46902;52.920;6.536;2022-12-18T07:43:06;34.50;;;18.00;;
61015;SDS011;46902;52.920;6.536;2022-12-18T07:45:31;35.92;;;18.30;;
61015;SDS011;46902;52.920;6.536;2022-12-18T07:47:57;36.50;;;19.05;;
61015;SDS011;46902;52.920;6.536;2022-12-18T07:50:23;34.75;;;17.98;;
61015;SDS011;46902;52.920;6.536;2022-12-18T07:52:49;32.25;;;17.20;;
61015;SDS011;46902;52.920;6.536;2022-12-18T07:55:14;31.13;;;17.55;;
61015;SDS011;46902;52.920;6.536;2022-12-18T07:57:40;32.40;;;16.83;;
61015;SDS011;46902;52.920;6.536;2022-12-18T08:00:05;34.53;;;17.35;;
61015;SDS011;46902;52.920;6.536;2022-12-18T08:02:32;31.58;;;16.48;;
61015;SDS011;46902;52.920;6.536;2022-12-18T08:04:57;31.23;;;16.23;;
61015;SDS011;46902;52.920;6.536;2022-12-18T08:07:23;29.58;;;17.25;;
61015;SDS011;46902;52.920;6.536;2022-12-18T08:09:49;33.33;;;16.13;;
61015;SDS011;46902;52.920;6.536;2022-12-18T08:12:14;28.98;;;16.27;;
61015;SDS011;46902;52.920;6.536;2022-12-18T08:14:40;29.67;;;16.95;;
61015;SDS011;46902;52.920;6.536;2022-12-18T08:17:05;33.50;;;17.27;;
61015;SDS011;46902;52.920;6.536;2022-12-18T08:19:31;31.20;;;17.52;;
61015;SDS011;46902;52.920;6.536;2022-12-18T08:21:56;28.67;;;16.65;;
61015;SDS011;46902;52.920;6.536;2022-12-18T08:24:22;30.35;;;15.65;;
61015;SDS011;46902;52.920;6.536;2022-12-18T08:26:47;33.35;;;17.73;;
61015;SDS011;46902;52.920;6.536;2022-12-18T08:29:13;31.08;;;17.48;;
61015;SDS011;46902;52.920;6.536;2022-12-18T08:31:39;31.45;;;16.25;;
61015;SDS011;46902;52.920;6.536;2022-12-18T08:34:04;28.45;;;15.65;;
61015;SDS011;46902;52.920;6.536;2022-12-18T08:36:30;27.60;;;15.48;;
61015;SDS011;46902;52.920;6.536;2022-12-18T08:38:56;26.27;;;15.60;;
61015;SDS011;46902;52.920;6.536;2022-12-18T08:41:22;26.60;;;14.80;;
61015;SDS011;46902;52.920;6.536;2022-12-18T08:43:48;29.50;;;15.88;;
61015;SDS011;46902;52.920;6.536;2022-12-18T08:46:36;26.90;;;15.25;;
61015;SDS011;46902;52.920;6.536;2022-12-18T08:49:03;27.92;;;14.43;;
61015;SDS011;46902;52.920;6.536;2022-12-18T08:51:30;24.25;;;14.38;;
61015;SDS011;46902;52.920;6.536;2022-12-18T08:53:55;31.80;;;14.75;;
61015;SDS011;46902;52.920;6.536;2022-12-18T08:56:21;24.40;;;14.35;;
61015;SDS011;46902;52.920;6.536;2022-12-18T08:58:47;27.30;;;13.98;;
61015;SDS011;46902;52.920;6.536;2022-12-18T09:01:12;23.80;;;14.23;;
61015;SDS011;46902;52.920;6.536;2022-12-18T09:03:38;22.08;;;12.98;;
61015;SDS011;46902;52.920;6.536;2022-12-18T09:06:04;24.13;;;13.27;;
61015;SDS011;46902;52.920;6.536;2022-12-18T09:08:30;26.15;;;14.07;;
61015;SDS011;46902;52.920;6.536;2022-12-18T09:10:59;29.40;;;14.23;;
61015;SDS011;46902;52.920;6.536;2022-12-18T09:13:24;23.88;;;13.02;;
61015;SDS011;46902;52.920;6.536;2022-12-18T09:15:51;24.30;;;13.75;;
61015;SDS011;46902;52.920;6.536;2022-12-18T09:18:19;23.90;;;13.80;;
61015;SDS011;46902;52.920;6.536;2022-12-18T09:20:45;19.95;;;12.35;;
61015;SDS011;46902;52.920;6.536;2022-12-18T09:23:11;23.05;;;13.27;;
61015;SDS011;46902;52.920;6.536;2022-12-18T09:25:37;22.73;;;12.70;;
61015;SDS011;46902;52.920;6.536;2022-12-18T09:28:04;21.58;;;12.10;;
61015;SDS011;46902;52.920;6.536;2022-12-18T09:30:31;20.25;;;11.88;;
61015;SDS011;46902;52.920;6.536;2022-12-18T09:32:59;20.38;;;12.38;;
61015;SDS011;46902;52.920;6.536;2022-12-18T09:35:25;20.27;;;11.43;;
61015;SDS011;46902;52.920;6.536;2022-12-18T09:37:51;18.98;;;10.80;;
61015;SDS011;46902;52.920;6.536;2022-12-18T09:40:18;20.48;;;11.25;;
61015;SDS011;46902;52.920;6.536;2022-12-18T09:42:49;19.13;;;10.45;;
61015;SDS011;46902;52.920;6.536;2022-12-18T09:45:19;21.33;;;11.48;;
61015;SDS011;46902;52.920;6.536;2022-12-18T09:47:45;17.40;;;10.05;;
61015;SDS011;46902;52.920;6.536;2022-12-18T09:52:48;16.88;;;10.20;;
61015;SDS011;46902;52.920;6.536;2022-12-18T09:57:55;18.65;;;11.25;;
61015;SDS011;46902;52.920;6.536;2022-12-18T10:00:26;17.08;;;10.43;;
61015;SDS011;46902;52.920;6.536;2022-12-18T10:02:52;17.63;;;10.05;;
61015;SDS011;46902;52.920;6.536;2022-12-18T10:05:36;15.50;;;9.90;;
61015;SDS011;46902;52.920;6.536;2022-12-18T10:11:16;17.25;;;9.65;;
61015;SDS011;46902;52.920;6.536;2022-12-18T10:13:57;14.48;;;8.45;;
61015;SDS011;46902;52.920;6.536;2022-12-18T10:19:33;14.82;;;8.77;;
61015;SDS011;46902;52.920;6.536;2022-12-18T10:22:33;14.52;;;8.25;;
61015;SDS011;46902;52.920;6.536;2022-12-18T10:28:00;12.18;;;7.80;;
61015;SDS011;46902;52.920;6.536;2022-12-18T10:30:35;13.13;;;7.63;;
61015;SDS011;46902;52.920;6.536;2022-12-18T10:33:03;12.65;;;7.63;;
61015;SDS011;46902;52.920;6.536;2022-12-18T10:35:28;13.45;;;8.40;;
61015;SDS011;46902;52.920;6.536;2022-12-18T10:38:19;15.38;;;7.88;;
61015;SDS011;46902;52.920;6.536;2022-12-18T10:48:36;10.73;;;6.82;;
61015;SDS011;46902;52.920;6.536;2022-12-18T10:51:20;12.10;;;6.65;;
61015;SDS011;46902;52.920;6.536;2022-12-18T10:53:57;11.65;;;6.90;;
61015;SDS011;46902;52.920;6.536;2022-12-18T10:56:26;11.25;;;6.70;;
61015;SDS011;46902;52.920;6.536;2022-12-18T10:59:03;12.35;;;7.18;;
61015;SDS011;46902;52.920;6.536;2022-12-18T11:01:44;12.85;;;6.68;;
61015;SDS011;46902;52.920;6.536;2022-12-18T11:09:31;10.75;;;5.90;;
61015;SDS011;46902;52.920;6.536;2022-12-18T11:11:59;9.98;;;5.70;;
61015;SDS011;46902;52.920;6.536;2022-12-18T11:14:28;7.90;;;4.75;;
61015;SDS011;46902;52.920;6.536;2022-12-18T11:16:57;7.35;;;5.15;;
61015;SDS011;46902;52.920;6.536;2022-12-18T11:19:32;8.13;;;5.07;;
61015;SDS011;46902;52.920;6.536;2022-12-18T11:22:19;8.05;;;4.97;;
61015;SDS011;46902;52.920;6.536;2022-12-18T11:24:57;7.07;;;4.68;;
61015;SDS011;46902;52.920;6.536;2022-12-18T11:27:31;8.13;;;5.00;;
61015;SDS011;46902;52.920;6.536;2022-12-18T11:33:32;8.25;;;4.50;;
61015;SDS011;46902;52.920;6.536;2022-12-18T11:36:02;8.77;;;5.03;;
61015;SDS011;46902;52.920;6.536;2022-12-18T11:38:30;8.23;;;4.80;;
61015;SDS011;46902;52.920;6.536;2022-12-18T11:41:07;9.50;;;5.28;;
61015;SDS011;46902;52.920;6.536;2022-12-18T11:44:11;9.68;;;5.32;;
61015;SDS011;46902;52.920;6.536;2022-12-18T11:46:45;10.18;;;5.78;;
61015;SDS011;46902;52.920;6.536;2022-12-18T11:49:17;11.57;;;4.68;;
61015;SDS011;46902;52.920;6.536;2022-12-18T11:54:33;8.32;;;4.40;;
61015;SDS011;46902;52.920;6.536;2022-12-18T11:57:03;7.22;;;4.60;;
61015;SDS011;46902;52.920;6.536;2022-12-18T12:00:01;7.13;;;4.40;;
61015;SDS011;46902;52.920;6.536;2022-12-18T12:02:40;9.05;;;4.80;;
61015;SDS011;46902;52.920;6.536;2022-12-18T12:07:59;8.45;;;4.90;;
61015;SDS011;46902;52.920;6.536;2022-12-18T12:13:23;9.80;;;4.57;;
61015;SDS011;46902;52.920;6.536;2022-12-18T12:21:39;9.23;;;4.57;;
61015;SDS011;46902;52.920;6.536;2022-12-18T12:24:20;11.10;;;4.28;;
61015;SDS011;46902;52.920;6.536;2022-12-18T12:27:10;7.82;;;4.30;;
61015;SDS011;46902;52.920;6.536;2022-12-18T12:40:41;8.20;;;4.72;;
61015;SDS011;46902;52.920;6.536;2022-12-18T12:43:27;8.75;;;4.93;;
61015;SDS011;46902;52.920;6.536;2022-12-18T12:46:06;10.23;;;4.82;;
61015;SDS011;46902;52.920;6.536;2022-12-18T12:51:03;7.97;;;4.57;;
61015;SDS011;46902;52.920;6.536;2022-12-18T12:53:37;7.40;;;4.38;;
61015;SDS011;46902;52.920;6.536;2022-12-18T12:56:06;7.07;;;4.75;;
61015;SDS011;46902;52.920;6.536;2022-12-18T13:01:16;9.35;;;4.65;;
61015;SDS011;46902;52.920;6.536;2022-12-18T13:03:52;7.32;;;4.05;;
61015;SDS011;46902;52.920;6.536;2022-12-18T13:06:25;10.90;;;5.10;;
61015;SDS011;46902;52.920;6.536;2022-12-18T13:09:01;8.38;;;4.82;;
61015;SDS011;46902;52.920;6.536;2022-12-18T13:14:22;7.65;;;4.65;;
61015;SDS011;46902;52.920;6.536;2022-12-18T13:16:51;7.68;;;4.63;;
61015;SDS011;46902;52.920;6.536;2022-12-18T13:19:23;8.50;;;4.60;;
61015;SDS011;46902;52.920;6.536;2022-12-18T13:21:54;8.70;;;5.95;;
61015;SDS011;46902;52.920;6.536;2022-12-18T13:26:51;6.80;;;4.20;;
61015;SDS011;46902;52.920;6.536;2022-12-18T13:32:22;7.65;;;4.90;;
61015;SDS011;46902;52.920;6.536;2022-12-18T13:37:53;10.55;;;5.68;;
61015;SDS011;46902;52.920;6.536;2022-12-18T13:43:15;8.23;;;5.00;;
61015;SDS011;46902;52.920;6.536;2022-12-18T13:45:47;11.55;;;5.40;;
61015;SDS011;46902;52.920;6.536;2022-12-18T13:48:24;10.60;;;5.57;;
61015;SDS011;46902;52.920;6.536;2022-12-18T13:53:30;8.43;;;5.68;;
61015;SDS011;46902;52.920;6.536;2022-12-18T13:56:18;11.88;;;5.30;;
61015;SDS011;46902;52.920;6.536;2022-12-18T13:59:03;9.48;;;5.60;;
61015;SDS011;46902;52.920;6.536;2022-12-18T14:01:34;11.30;;;5.20;;
61015;SDS011;46902;52.920;6.536;2022-12-18T14:04:10;8.63;;;5.22;;
61015;SDS011;46902;52.920;6.536;2022-12-18T14:06:37;10.45;;;5.95;;
61015;SDS011;46902;52.920;6.536;2022-12-18T14:09:03;8.35;;;5.25;;
61015;SDS011;46902;52.920;6.536;2022-12-18T14:11:29;10.55;;;5.68;;
61015;SDS011;46902;52.920;6.536;2022-12-18T14:13:55;10.13;;;5.63;;
61015;SDS011;46902;52.920;6.536;2022-12-18T14:16:21;9.18;;;5.80;;
61015;SDS011;46902;52.920;6.536;2022-12-18T14:18:48;8.60;;;5.80;;
61015;SDS011;46902;52.920;6.536;2022-12-18T14:21:26;8.50;;;5.38;;
61015;SDS011;46902;52.920;6.536;2022-12-18T14:26:50;10.93;;;5.97;;
61015;SDS011;46902;52.920;6.536;2022-12-18T14:29:20;12.82;;;6.22;;
61015;SDS011;46902;52.920;6.536;2022-12-18T14:34:41;11.50;;;5.70;;
61015;SDS011;46902;52.920;6.536;2022-12-18T14:37:11;11.30;;;6.10;;
61015;SDS011;46902;52.920;6.536;2022-12-18T14:39:39;9.10;;;5.88;;
61015;SDS011;46902;52.920;6.536;2022-12-18T14:42:05;9.70;;;5.85;;
61015;SDS011;46902;52.920;6.536;2022-12-18T14:44:30;8.82;;;5.97;;
61015;SDS011;46902;52.920;6.536;2022-12-18T14:46:56;9.52;;;5.97;;
61015;SDS011;46902;52.920;6.536;2022-12-18T14:52:02;14.32;;;6.80;;
61015;SDS011;46902;52.920;6.536;2022-12-18T14:54:30;13.07;;;6.07;;
61015;SDS011;46902;52.920;6.536;2022-12-18T14:57:00;9.73;;;6.15;;
61015;SDS011;46902;52.920;6.536;2022-12-18T14:59:31;11.80;;;6.70;;
61015;SDS011;46902;52.920;6.536;2022-12-18T15:04:38;12.10;;;6.85;;
61015;SDS011;46902;52.920;6.536;2022-12-18T15:07:21;12.30;;;6.63;;
61015;SDS011;46902;52.920;6.536;2022-12-18T15:12:28;11.18;;;7.32;;
61015;SDS011;46902;52.920;6.536;2022-12-18T15:17:24;8.40;;;5.70;;
61015;SDS011;46902;52.920;6.536;2022-12-18T15:19:58;11.45;;;7.05;;
61015;SDS011;46902;52.920;6.536;2022-12-18T15:24:56;11.35;;;6.60;;
61015;SDS011;46902;52.920;6.536;2022-12-18T15:27:27;11.05;;;6.93;;
61015;SDS011;46902;52.920;6.536;2022-12-18T15:29:59;10.73;;;6.70;;
61015;SDS011;46902;52.920;6.536;2022-12-18T15:32:37;12.35;;;7.15;;
61015;SDS011;46902;52.920;6.536;2022-12-18T15:37:36;11.68;;;7.20;;
61015;SDS011;46902;52.920;6.536;2022-12-18T15:40:05;11.50;;;7.88;;
61015;SDS011;46902;52.920;6.536;2022-12-18T15:42:32;11.63;;;7.28;;
61015;SDS011;46902;52.920;6.536;2022-12-18T15:45:16;11.80;;;7.78;;
61015;SDS011;46902;52.920;6.536;2022-12-18T15:47:43;11.63;;;7.45;;
61015;SDS011;46902;52.920;6.536;2022-12-18T15:50:09;11.20;;;7.63;;
61015;SDS011;46902;52.920;6.536;2022-12-18T15:52:45;12.88;;;7.03;;
61015;SDS011;46902;52.920;6.536;2022-12-18T15:55:22;13.00;;;7.03;;
61015;SDS011;46902;52.920;6.536;2022-12-18T15:58:07;12.40;;;7.55;;
61015;SDS011;46902;52.920;6.536;2022-12-18T16:00:35;11.63;;;7.10;;
61015;SDS011;46902;52.920;6.536;2022-12-18T16:03:03;12.25;;;7.80;;
61015;SDS011;46902;52.920;6.536;2022-12-18T16:05:29;11.55;;;7.03;;
61015;SDS011;46902;52.920;6.536;2022-12-18T16:07:55;11.40;;;7.30;;
61015;SDS011;46902;52.920;6.536;2022-12-18T16:10:21;10.15;;;7.35;;
61015;SDS011;46902;52.920;6.536;2022-12-18T16:12:48;13.63;;;7.78;;
61015;SDS011;46902;52.920;6.536;2022-12-18T16:15:14;13.57;;;7.85;;
61015;SDS011;46902;52.920;6.536;2022-12-18T16:17:41;14.40;;;8.05;;
61015;SDS011;46902;52.920;6.536;2022-12-18T16:20:14;12.13;;;7.38;;
61015;SDS011;46902;52.920;6.536;2022-12-18T16:22:45;14.10;;;7.53;;
61015;SDS011;46902;52.920;6.536;2022-12-18T16:25:19;14.07;;;7.57;;
61015;SDS011;46902;52.920;6.536;2022-12-18T16:27:51;12.75;;;8.00;;
61015;SDS011;46902;52.920;6.536;2022-12-18T16:30:19;11.45;;;7.53;;
61015;SDS011;46902;52.920;6.536;2022-12-18T16:32:46;11.68;;;7.20;;
61015;SDS011;46902;52.920;6.536;2022-12-18T16:35:12;13.27;;;8.00;;
61015;SDS011;46902;52.920;6.536;2022-12-18T16:37:39;12.25;;;7.65;;
61015;SDS011;46902;52.920;6.536;2022-12-18T16:40:06;11.07;;;7.90;;
61015;SDS011;46902;52.920;6.536;2022-12-18T16:42:35;11.75;;;7.60;;
61015;SDS011;46902;52.920;6.536;2022-12-18T16:45:01;13.57;;;7.47;;
61015;SDS011;46902;52.920;6.536;2022-12-18T16:47:28;15.88;;;8.52;;
61015;SDS011;46902;52.920;6.536;2022-12-18T16:49:54;12.27;;;8.05;;
61015;SDS011;46902;52.920;6.536;2022-12-18T16:52:19;14.00;;;8.35;;
61015;SDS011;46902;52.920;6.536;2022-12-18T16:54:46;13.55;;;7.88;;